sensor_id;sensor_type;location;lat;lon;timestamp;P1;durP1;ratioP1;P2;durP2;ratioP2
52106;SDS011;38105;52.968;5.974;2023-02-15T00:01:34;32.63;;;21.58;;
52106;SDS011;38105;52.968;5.974;2023-02-15T00:04:01;32.63;;;21.88;;
52106;SDS011;38105;52.968;5.974;2023-02-15T00:06:27;33.78;;;22.60;;
52106;SDS011;38105;52.968;5.974;2023-02-15T00:08:53;30.55;;;21.38;;
52106;SDS011;38105;52.968;5.974;2023-02-15T00:11:19;34.42;;;21.88;;
52106;SDS011;38105;52.968;5.974;2023-02-15T00:14:25;31.83;;;22.98;;
52106;SDS011;38105;52.968;5.974;2023-02-15T00:16:51;33.72;;;23.13;;
52106;SDS011;38105;52.968;5.974;2023-02-15T00:19:17;33.58;;;23.88;;
52106;SDS011;38105;52.968;5.974;2023-02-15T00:21:45;30.08;;;22.27;;
52106;SDS011;38105;52.968;5.974;2023-02-15T00:24:12;33.20;;;23.98;;
52106;SDS011;38105;52.968;5.974;2023-02-15T00:26:39;31.05;;;22.27;;
52106;SDS011;38105;52.968;5.974;2023-02-15T00:29:07;31.60;;;22.98;;
52106;SDS011;38105;52.968;5.974;2023-02-15T00:31:33;31.15;;;22.92;;
52106;SDS011;38105;52.968;5.974;2023-02-15T00:34:04;33.58;;;22.85;;
52106;SDS011;38105;52.968;5.974;2023-02-15T00:36:36;32.33;;;23.55;;
52106;SDS011;38105;52.968;5.974;2023-02-15T00:39:02;38.08;;;25.52;;
52106;SDS011;38105;52.968;5.974;2023-02-15T00:41:29;48.60;;;29.65;;
52106;SDS011;38105;52.968;5.974;2023-02-15T00:43:56;49.38;;;30.48;;
52106;SDS011;38105;52.968;5.974;2023-02-15T00:46:21;54.75;;;33.30;;
52106;SDS011;38105;52.968;5.974;2023-02-15T00:48:47;84.00;;;36.97;;
52106;SDS011;38105;52.968;5.974;2023-02-15T00:51:13;49.38;;;32.00;;
52106;SDS011;38105;52.968;5.974;2023-02-15T00:53:39;45.85;;;30.15;;
52106;SDS011;38105;52.968;5.974;2023-02-15T00:56:04;41.08;;;28.05;;
52106;SDS011;38105;52.968;5.974;2023-02-15T00:58:30;48.70;;;31.73;;
52106;SDS011;38105;52.968;5.974;2023-02-15T01:01:01;45.75;;;29.27;;
52106;SDS011;38105;52.968;5.974;2023-02-15T01:03:31;48.08;;;30.02;;
52106;SDS011;38105;52.968;5.974;2023-02-15T01:05:57;41.78;;;28.48;;
52106;SDS011;38105;52.968;5.974;2023-02-15T01:08:23;45.25;;;30.35;;
52106;SDS011;38105;52.968;5.974;2023-02-15T01:10:49;38.75;;;25.40;;
52106;SDS011;38105;52.968;5.974;2023-02-15T01:13:15;33.22;;;23.55;;
52106;SDS011;38105;52.968;5.974;2023-02-15T01:15:41;35.30;;;24.15;;
52106;SDS011;38105;52.968;5.974;2023-02-15T01:18:07;33.45;;;22.85;;
52106;SDS011;38105;52.968;5.974;2023-02-15T01:20:34;32.35;;;23.38;;
52106;SDS011;38105;52.968;5.974;2023-02-15T01:23:04;37.85;;;26.38;;
52106;SDS011;38105;52.968;5.974;2023-02-15T01:25:32;36.38;;;24.55;;
52106;SDS011;38105;52.968;5.974;2023-02-15T01:27:59;38.08;;;25.77;;
52106;SDS011;38105;52.968;5.974;2023-02-15T01:30:25;32.45;;;24.85;;
52106;SDS011;38105;52.968;5.974;2023-02-15T01:32:51;36.35;;;25.80;;
52106;SDS011;38105;52.968;5.974;2023-02-15T01:35:17;35.15;;;24.90;;
52106;SDS011;38105;52.968;5.974;2023-02-15T01:37:43;33.80;;;25.60;;
52106;SDS011;38105;52.968;5.974;2023-02-15T01:40:11;32.55;;;24.23;;
52106;SDS011;38105;52.968;5.974;2023-02-15T01:42:39;33.92;;;24.65;;
52106;SDS011;38105;52.968;5.974;2023-02-15T01:45:14;36.17;;;25.52;;
52106;SDS011;38105;52.968;5.974;2023-02-15T01:47:51;36.83;;;26.02;;
52106;SDS011;38105;52.968;5.974;2023-02-15T01:50:20;33.90;;;24.13;;
52106;SDS011;38105;52.968;5.974;2023-02-15T01:52:58;35.38;;;24.73;;
52106;SDS011;38105;52.968;5.974;2023-02-15T01:55:32;37.05;;;25.92;;
52106;SDS011;38105;52.968;5.974;2023-02-15T01:58:01;35.65;;;25.48;;
52106;SDS011;38105;52.968;5.974;2023-02-15T02:00:27;34.53;;;26.52;;
52106;SDS011;38105;52.968;5.974;2023-02-15T02:02:53;37.15;;;26.77;;
52106;SDS011;38105;52.968;5.974;2023-02-15T02:05:21;37.28;;;25.75;;
52106;SDS011;38105;52.968;5.974;2023-02-15T02:07:48;32.67;;;24.25;;
52106;SDS011;38105;52.968;5.974;2023-02-15T02:10:17;34.15;;;23.80;;
52106;SDS011;38105;52.968;5.974;2023-02-15T02:12:45;38.38;;;24.52;;
52106;SDS011;38105;52.968;5.974;2023-02-15T02:15:13;35.95;;;23.95;;
52106;SDS011;38105;52.968;5.974;2023-02-15T02:20:37;32.13;;;23.58;;
52106;SDS011;38105;52.968;5.974;2023-02-15T02:44:34;39.40;;;26.70;;
52106;SDS011;38105;52.968;5.974;2023-02-15T02:47:10;44.90;;;28.08;;
52106;SDS011;38105;52.968;5.974;2023-02-15T02:49:46;40.50;;;26.25;;
52106;SDS011;38105;52.968;5.974;2023-02-15T02:55:21;40.78;;;26.23;;
52106;SDS011;38105;52.968;5.974;2023-02-15T03:00:52;45.83;;;27.17;;
52106;SDS011;38105;52.968;5.974;2023-02-15T03:03:25;46.65;;;26.80;;
52106;SDS011;38105;52.968;5.974;2023-02-15T03:05:56;42.58;;;27.42;;
52106;SDS011;38105;52.968;5.974;2023-02-15T03:08:26;44.67;;;27.90;;
52106;SDS011;38105;52.968;5.974;2023-02-15T03:10:57;45.03;;;28.80;;
52106;SDS011;38105;52.968;5.974;2023-02-15T03:13:25;45.05;;;27.52;;
52106;SDS011;38105;52.968;5.974;2023-02-15T03:15:52;41.42;;;26.75;;
52106;SDS011;38105;52.968;5.974;2023-02-15T03:18:44;38.28;;;25.40;;
52106;SDS011;38105;52.968;5.974;2023-02-15T03:24:10;44.78;;;28.08;;
52106;SDS011;38105;52.968;5.974;2023-02-15T03:29:07;62.22;;;37.22;;
52106;SDS011;38105;52.968;5.974;2023-02-15T03:31:37;62.13;;;35.50;;
52106;SDS011;38105;52.968;5.974;2023-02-15T03:34:07;59.53;;;35.70;;
52106;SDS011;38105;52.968;5.974;2023-02-15T03:36:39;58.88;;;35.90;;
52106;SDS011;38105;52.968;5.974;2023-02-15T03:42:07;50.28;;;33.72;;
52106;SDS011;38105;52.968;5.974;2023-02-15T03:44:51;50.92;;;33.47;;
52106;SDS011;38105;52.968;5.974;2023-02-15T03:47:23;51.97;;;33.45;;
52106;SDS011;38105;52.968;5.974;2023-02-15T03:52:28;44.92;;;31.80;;
52106;SDS011;38105;52.968;5.974;2023-02-15T03:54:55;43.20;;;29.67;;
52106;SDS011;38105;52.968;5.974;2023-02-15T03:57:25;45.17;;;30.05;;
52106;SDS011;38105;52.968;5.974;2023-02-15T04:00:15;40.05;;;29.45;;
52106;SDS011;38105;52.968;5.974;2023-02-15T04:03:10;40.50;;;28.63;;
52106;SDS011;38105;52.968;5.974;2023-02-15T04:05:47;36.30;;;26.33;;
52106;SDS011;38105;52.968;5.974;2023-02-15T04:08:12;38.55;;;27.52;;
52106;SDS011;38105;52.968;5.974;2023-02-15T04:10:38;55.22;;;33.17;;
52106;SDS011;38105;52.968;5.974;2023-02-15T04:13:23;53.67;;;32.53;;
52106;SDS011;38105;52.968;5.974;2023-02-15T04:15:55;56.97;;;34.17;;
52106;SDS011;38105;52.968;5.974;2023-02-15T04:18:37;118.60;;;37.97;;
52106;SDS011;38105;52.968;5.974;2023-02-15T04:21:23;122.18;;;39.17;;
52106;SDS011;38105;52.968;5.974;2023-02-15T04:24:09;144.35;;;42.03;;
52106;SDS011;38105;52.968;5.974;2023-02-15T04:26:54;121.13;;;43.30;;
52106;SDS011;38105;52.968;5.974;2023-02-15T04:29:21;107.07;;;43.75;;
52106;SDS011;38105;52.968;5.974;2023-02-15T04:31:48;158.43;;;44.85;;
52106;SDS011;38105;52.968;5.974;2023-02-15T04:34:15;68.97;;;40.67;;
52106;SDS011;38105;52.968;5.974;2023-02-15T04:36:41;71.45;;;41.88;;
52106;SDS011;38105;52.968;5.974;2023-02-15T04:39:07;73.93;;;41.72;;
52106;SDS011;38105;52.968;5.974;2023-02-15T04:41:33;70.25;;;40.85;;
52106;SDS011;38105;52.968;5.974;2023-02-15T04:44:00;101.75;;;49.05;;
52106;SDS011;38105;52.968;5.974;2023-02-15T04:46:26;114.63;;;56.08;;
52106;SDS011;38105;52.968;5.974;2023-02-15T04:48:53;122.30;;;58.85;;
52106;SDS011;38105;52.968;5.974;2023-02-15T04:51:18;127.50;;;62.70;;
52106;SDS011;38105;52.968;5.974;2023-02-15T04:53:44;144.95;;;64.05;;
52106;SDS011;38105;52.968;5.974;2023-02-15T04:56:10;169.48;;;68.97;;
52106;SDS011;38105;52.968;5.974;2023-02-15T04:58:35;143.00;;;65.22;;
52106;SDS011;38105;52.968;5.974;2023-02-15T05:01:02;168.77;;;70.75;;
52106;SDS011;38105;52.968;5.974;2023-02-15T05:03:28;171.05;;;72.45;;
52106;SDS011;38105;52.968;5.974;2023-02-15T05:05:54;156.32;;;69.13;;
52106;SDS011;38105;52.968;5.974;2023-02-15T05:08:20;152.10;;;69.18;;
52106;SDS011;38105;52.968;5.974;2023-02-15T05:10:47;174.82;;;74.38;;
52106;SDS011;38105;52.968;5.974;2023-02-15T05:13:13;187.55;;;74.47;;
52106;SDS011;38105;52.968;5.974;2023-02-15T05:15:39;199.23;;;83.30;;
52106;SDS011;38105;52.968;5.974;2023-02-15T05:18:05;231.18;;;84.55;;
52106;SDS011;38105;52.968;5.974;2023-02-15T05:20:32;226.32;;;83.28;;
52106;SDS011;38105;52.968;5.974;2023-02-15T05:22:58;217.02;;;84.25;;
52106;SDS011;38105;52.968;5.974;2023-02-15T05:25:24;207.85;;;84.68;;
52106;SDS011;38105;52.968;5.974;2023-02-15T05:28:11;199.57;;;84.10;;
52106;SDS011;38105;52.968;5.974;2023-02-15T05:31:06;230.68;;;82.30;;
52106;SDS011;38105;52.968;5.974;2023-02-15T05:33:39;211.20;;;81.50;;
52106;SDS011;38105;52.968;5.974;2023-02-15T05:36:05;228.95;;;83.07;;
52106;SDS011;38105;52.968;5.974;2023-02-15T05:38:32;262.25;;;87.47;;
52106;SDS011;38105;52.968;5.974;2023-02-15T05:40:58;280.13;;;88.13;;
52106;SDS011;38105;52.968;5.974;2023-02-15T05:43:24;244.43;;;84.72;;
52106;SDS011;38105;52.968;5.974;2023-02-15T05:45:51;198.05;;;81.50;;
52106;SDS011;38105;52.968;5.974;2023-02-15T05:48:18;207.27;;;83.22;;
52106;SDS011;38105;52.968;5.974;2023-02-15T05:50:46;237.93;;;86.53;;
52106;SDS011;38105;52.968;5.974;2023-02-15T05:53:11;208.52;;;80.03;;
52106;SDS011;38105;52.968;5.974;2023-02-15T05:55:39;224.20;;;84.43;;
52106;SDS011;38105;52.968;5.974;2023-02-15T05:58:05;214.75;;;81.90;;
52106;SDS011;38105;52.968;5.974;2023-02-15T06:00:33;188.27;;;76.80;;
52106;SDS011;38105;52.968;5.974;2023-02-15T06:02:59;190.07;;;76.18;;
52106;SDS011;38105;52.968;5.974;2023-02-15T06:05:25;180.98;;;71.20;;
52106;SDS011;38105;52.968;5.974;2023-02-15T06:07:50;173.82;;;72.63;;
52106;SDS011;38105;52.968;5.974;2023-02-15T06:10:16;179.30;;;74.53;;
52106;SDS011;38105;52.968;5.974;2023-02-15T06:12:43;173.43;;;71.45;;
52106;SDS011;38105;52.968;5.974;2023-02-15T06:15:09;149.30;;;68.43;;
52106;SDS011;38105;52.968;5.974;2023-02-15T06:17:35;178.68;;;70.00;;
52106;SDS011;38105;52.968;5.974;2023-02-15T06:20:01;184.93;;;77.68;;
52106;SDS011;38105;52.968;5.974;2023-02-15T06:22:26;182.55;;;75.03;;
52106;SDS011;38105;52.968;5.974;2023-02-15T06:24:52;187.93;;;73.25;;
52106;SDS011;38105;52.968;5.974;2023-02-15T06:27:17;195.80;;;74.88;;
52106;SDS011;38105;52.968;5.974;2023-02-15T06:29:43;183.27;;;72.38;;
52106;SDS011;38105;52.968;5.974;2023-02-15T06:32:08;165.68;;;72.35;;
52106;SDS011;38105;52.968;5.974;2023-02-15T06:34:34;164.85;;;69.03;;
52106;SDS011;38105;52.968;5.974;2023-02-15T06:37:00;153.65;;;67.30;;
52106;SDS011;38105;52.968;5.974;2023-02-15T06:39:25;147.05;;;64.18;;
52106;SDS011;38105;52.968;5.974;2023-02-15T06:41:51;135.18;;;64.43;;
52106;SDS011;38105;52.968;5.974;2023-02-15T06:44:17;143.23;;;63.50;;
52106;SDS011;38105;52.968;5.974;2023-02-15T06:46:42;124.97;;;59.63;;
52106;SDS011;38105;52.968;5.974;2023-02-15T06:49:08;117.47;;;57.38;;
52106;SDS011;38105;52.968;5.974;2023-02-15T06:51:33;117.35;;;57.22;;
52106;SDS011;38105;52.968;5.974;2023-02-15T06:53:59;115.45;;;55.75;;
52106;SDS011;38105;52.968;5.974;2023-02-15T06:56:25;123.55;;;57.72;;
52106;SDS011;38105;52.968;5.974;2023-02-15T06:58:51;124.75;;;58.25;;
52106;SDS011;38105;52.968;5.974;2023-02-15T07:01:17;115.63;;;55.08;;
52106;SDS011;38105;52.968;5.974;2023-02-15T07:03:44;116.68;;;55.67;;
52106;SDS011;38105;52.968;5.974;2023-02-15T07:06:09;112.63;;;55.55;;
52106;SDS011;38105;52.968;5.974;2023-02-15T07:08:36;115.05;;;55.63;;
52106;SDS011;38105;52.968;5.974;2023-02-15T07:11:03;104.28;;;53.03;;
52106;SDS011;38105;52.968;5.974;2023-02-15T07:13:49;101.03;;;51.45;;
52106;SDS011;38105;52.968;5.974;2023-02-15T07:16:17;117.25;;;52.95;;
52106;SDS011;38105;52.968;5.974;2023-02-15T07:18:43;99.80;;;50.22;;
52106;SDS011;38105;52.968;5.974;2023-02-15T07:21:09;96.15;;;48.45;;
52106;SDS011;38105;52.968;5.974;2023-02-15T07:23:35;89.95;;;46.63;;
52106;SDS011;38105;52.968;5.974;2023-02-15T07:26:02;90.50;;;47.05;;
52106;SDS011;38105;52.968;5.974;2023-02-15T07:28:28;78.70;;;44.50;;
52106;SDS011;38105;52.968;5.974;2023-02-15T07:30:54;90.43;;;46.40;;
52106;SDS011;38105;52.968;5.974;2023-02-15T07:33:20;82.70;;;43.45;;
52106;SDS011;38105;52.968;5.974;2023-02-15T07:35:49;71.85;;;42.30;;
52106;SDS011;38105;52.968;5.974;2023-02-15T07:38:16;63.20;;;36.67;;
52106;SDS011;38105;52.968;5.974;2023-02-15T07:40:43;55.88;;;35.03;;
52106;SDS011;38105;52.968;5.974;2023-02-15T07:43:09;54.72;;;33.00;;
52106;SDS011;38105;52.968;5.974;2023-02-15T07:45:35;49.38;;;32.10;;
52106;SDS011;38105;52.968;5.974;2023-02-15T07:48:01;47.55;;;31.13;;
52106;SDS011;38105;52.968;5.974;2023-02-15T07:50:27;46.40;;;30.20;;
52106;SDS011;38105;52.968;5.974;2023-02-15T07:52:53;45.08;;;29.77;;
52106;SDS011;38105;52.968;5.974;2023-02-15T07:55:19;42.97;;;28.30;;
52106;SDS011;38105;52.968;5.974;2023-02-15T07:57:45;49.28;;;29.98;;
52106;SDS011;38105;52.968;5.974;2023-02-15T08:00:13;45.10;;;28.52;;
52106;SDS011;38105;52.968;5.974;2023-02-15T08:02:40;41.58;;;27.83;;
52106;SDS011;38105;52.968;5.974;2023-02-15T08:05:06;44.10;;;27.42;;
52106;SDS011;38105;52.968;5.974;2023-02-15T08:07:32;43.00;;;27.90;;
52106;SDS011;38105;52.968;5.974;2023-02-15T08:09:58;42.65;;;28.63;;
52106;SDS011;38105;52.968;5.974;2023-02-15T08:12:27;45.28;;;29.15;;
52106;SDS011;38105;52.968;5.974;2023-02-15T08:14:52;42.60;;;26.73;;
52106;SDS011;38105;52.968;5.974;2023-02-15T08:17:18;39.58;;;26.70;;
52106;SDS011;38105;52.968;5.974;2023-02-15T08:19:44;40.60;;;27.15;;
52106;SDS011;38105;52.968;5.974;2023-02-15T08:22:12;38.95;;;26.58;;
52106;SDS011;38105;52.968;5.974;2023-02-15T08:24:38;40.78;;;27.05;;
52106;SDS011;38105;52.968;5.974;2023-02-15T08:27:08;40.22;;;26.27;;
52106;SDS011;38105;52.968;5.974;2023-02-15T08:29:36;37.60;;;26.40;;
52106;SDS011;38105;52.968;5.974;2023-02-15T08:32:07;40.05;;;27.05;;
52106;SDS011;38105;52.968;5.974;2023-02-15T08:34:35;36.80;;;26.75;;
52106;SDS011;38105;52.968;5.974;2023-02-15T08:37:03;34.70;;;26.05;;
52106;SDS011;38105;52.968;5.974;2023-02-15T08:39:29;37.88;;;26.02;;
52106;SDS011;38105;52.968;5.974;2023-02-15T08:41:54;38.50;;;26.73;;
52106;SDS011;38105;52.968;5.974;2023-02-15T08:44:20;39.55;;;27.17;;
52106;SDS011;38105;52.968;5.974;2023-02-15T08:46:46;40.78;;;26.30;;
52106;SDS011;38105;52.968;5.974;2023-02-15T08:49:15;37.22;;;27.00;;
52106;SDS011;38105;52.968;5.974;2023-02-15T08:51:43;39.72;;;27.30;;
52106;SDS011;38105;52.968;5.974;2023-02-15T08:54:11;44.05;;;26.50;;
52106;SDS011;38105;52.968;5.974;2023-02-15T08:56:39;40.42;;;27.85;;
52106;SDS011;38105;52.968;5.974;2023-02-15T08:59:07;41.22;;;28.20;;
52106;SDS011;38105;52.968;5.974;2023-02-15T09:01:44;40.05;;;27.92;;
52106;SDS011;38105;52.968;5.974;2023-02-15T09:04:10;40.50;;;26.55;;
52106;SDS011;38105;52.968;5.974;2023-02-15T09:06:38;43.55;;;27.00;;
52106;SDS011;38105;52.968;5.974;2023-02-15T09:09:04;39.83;;;26.02;;
52106;SDS011;38105;52.968;5.974;2023-02-15T09:11:33;174.38;;;156.35;;
52106;SDS011;38105;52.968;5.974;2023-02-15T09:14:01;188.57;;;147.43;;
52106;SDS011;38105;52.968;5.974;2023-02-15T09:16:29;116.35;;;93.95;;
52106;SDS011;38105;52.968;5.974;2023-02-15T09:18:57;320.50;;;146.40;;
52106;SDS011;38105;52.968;5.974;2023-02-15T09:21:23;277.00;;;153.70;;
52106;SDS011;38105;52.968;5.974;2023-02-15T09:23:51;367.45;;;155.07;;
52106;SDS011;38105;52.968;5.974;2023-02-15T09:26:21;346.15;;;172.82;;
52106;SDS011;38105;52.968;5.974;2023-02-15T09:28:50;373.52;;;156.60;;
52106;SDS011;38105;52.968;5.974;2023-02-15T09:31:19;365.55;;;151.30;;
52106;SDS011;38105;52.968;5.974;2023-02-15T09:33:48;382.48;;;162.73;;
52106;SDS011;38105;52.968;5.974;2023-02-15T09:36:15;365.83;;;163.85;;
52106;SDS011;38105;52.968;5.974;2023-02-15T09:38:46;328.90;;;171.15;;
52106;SDS011;38105;52.968;5.974;2023-02-15T09:52:04;342.75;;;147.93;;
52106;SDS011;38105;52.968;5.974;2023-02-15T09:54:42;341.65;;;154.30;;
52106;SDS011;38105;52.968;5.974;2023-02-15T09:57:27;344.83;;;151.20;;
52106;SDS011;38105;52.968;5.974;2023-02-15T10:00:20;376.27;;;170.65;;
52106;SDS011;38105;52.968;5.974;2023-02-15T10:17:02;380.25;;;158.90;;
52106;SDS011;38105;52.968;5.974;2023-02-15T10:22:32;366.98;;;147.57;;
52106;SDS011;38105;52.968;5.974;2023-02-15T10:25:20;371.60;;;153.85;;
52106;SDS011;38105;52.968;5.974;2023-02-15T10:28:20;361.92;;;165.05;;
52106;SDS011;38105;52.968;5.974;2023-02-15T10:33:52;307.88;;;158.48;;
52106;SDS011;38105;52.968;5.974;2023-02-15T10:47:54;380.27;;;167.88;;
52106;SDS011;38105;52.968;5.974;2023-02-15T10:50:40;382.10;;;168.55;;
52106;SDS011;38105;52.968;5.974;2023-02-15T11:07:11;385.10;;;170.95;;
52106;SDS011;38105;52.968;5.974;2023-02-15T11:09:47;392.60;;;172.63;;
52106;SDS011;38105;52.968;5.974;2023-02-15T11:12:32;405.00;;;177.43;;
52106;SDS011;38105;52.968;5.974;2023-02-15T11:15:11;391.25;;;161.48;;
52106;SDS011;38105;52.968;5.974;2023-02-15T11:17:59;383.38;;;149.68;;
52106;SDS011;38105;52.968;5.974;2023-02-15T11:20:31;396.63;;;173.20;;
52106;SDS011;38105;52.968;5.974;2023-02-15T11:23:06;335.42;;;170.13;;
52106;SDS011;38105;52.968;5.974;2023-02-15T11:25:41;379.25;;;173.35;;
52106;SDS011;38105;52.968;5.974;2023-02-15T11:28:15;401.02;;;173.35;;
52106;SDS011;38105;52.968;5.974;2023-02-15T11:30:54;394.08;;;163.80;;
52106;SDS011;38105;52.968;5.974;2023-02-15T11:33:31;378.73;;;160.27;;
52106;SDS011;38105;52.968;5.974;2023-02-15T11:36:07;362.25;;;163.25;;
52106;SDS011;38105;52.968;5.974;2023-02-15T11:38:37;386.75;;;163.70;;
52106;SDS011;38105;52.968;5.974;2023-02-15T11:41:12;368.20;;;162.15;;
52106;SDS011;38105;52.968;5.974;2023-02-15T11:46:21;384.80;;;160.43;;
52106;SDS011;38105;52.968;5.974;2023-02-15T11:48:47;390.60;;;167.55;;
52106;SDS011;38105;52.968;5.974;2023-02-15T11:51:14;395.02;;;167.57;;
52106;SDS011;38105;52.968;5.974;2023-02-15T11:53:43;381.48;;;158.65;;
52106;SDS011;38105;52.968;5.974;2023-02-15T11:56:14;377.63;;;161.02;;
52106;SDS011;38105;52.968;5.974;2023-02-15T11:58:47;335.80;;;169.48;;
52106;SDS011;38105;52.968;5.974;2023-02-15T12:01:37;390.52;;;163.55;;
52106;SDS011;38105;52.968;5.974;2023-02-15T12:06:55;274.33;;;168.23;;
52106;SDS011;38105;52.968;5.974;2023-02-15T12:11:53;212.48;;;155.95;;
52106;SDS011;38105;52.968;5.974;2023-02-15T12:14:52;281.75;;;156.40;;
52106;SDS011;38105;52.968;5.974;2023-02-15T12:17:23;357.50;;;167.82;;
52106;SDS011;38105;52.968;5.974;2023-02-15T12:20:01;283.52;;;159.43;;
52106;SDS011;38105;52.968;5.974;2023-02-15T12:22:41;333.05;;;176.23;;
52106;SDS011;38105;52.968;5.974;2023-02-15T12:25:56;362.42;;;174.45;;
52106;SDS011;38105;52.968;5.974;2023-02-15T12:28:30;296.00;;;159.43;;
52106;SDS011;38105;52.968;5.974;2023-02-15T12:30:52;337.05;;;167.75;;
52106;SDS011;38105;52.968;5.974;2023-02-15T12:35:58;344.63;;;162.50;;
52106;SDS011;38105;52.968;5.974;2023-02-15T12:38:35;391.98;;;165.02;;
52106;SDS011;38105;52.968;5.974;2023-02-15T12:41:05;292.95;;;165.55;;
52106;SDS011;38105;52.968;5.974;2023-02-15T12:44:02;375.30;;;161.80;;
52106;SDS011;38105;52.968;5.974;2023-02-15T12:46:28;380.77;;;171.13;;
52106;SDS011;38105;52.968;5.974;2023-02-15T12:51:51;366.45;;;161.43;;
52106;SDS011;38105;52.968;5.974;2023-02-15T12:56:47;400.33;;;167.38;;
52106;SDS011;38105;52.968;5.974;2023-02-15T12:59:13;387.80;;;161.65;;
52106;SDS011;38105;52.968;5.974;2023-02-15T13:01:40;403.50;;;172.50;;
52106;SDS011;38105;52.968;5.974;2023-02-15T13:04:14;390.45;;;162.05;;
52106;SDS011;38105;52.968;5.974;2023-02-15T13:06:53;372.83;;;167.65;;
52106;SDS011;38105;52.968;5.974;2023-02-15T13:14:45;297.92;;;166.10;;
52106;SDS011;38105;52.968;5.974;2023-02-15T13:17:15;331.80;;;159.15;;
52106;SDS011;38105;52.968;5.974;2023-02-15T13:19:52;280.67;;;157.38;;
52106;SDS011;38105;52.968;5.974;2023-02-15T13:22:20;364.10;;;162.88;;
52106;SDS011;38105;52.968;5.974;2023-02-15T13:25:32;388.75;;;163.15;;
52106;SDS011;38105;52.968;5.974;2023-02-15T13:27:50;379.00;;;153.93;;
52106;SDS011;38105;52.968;5.974;2023-02-15T13:30:34;385.67;;;160.25;;
52106;SDS011;38105;52.968;5.974;2023-02-15T13:33:06;386.40;;;165.27;;
52106;SDS011;38105;52.968;5.974;2023-02-15T13:38:33;355.17;;;172.75;;
52106;SDS011;38105;52.968;5.974;2023-02-15T13:41:09;392.15;;;165.57;;
52106;SDS011;38105;52.968;5.974;2023-02-15T13:51:58;386.83;;;161.48;;
52106;SDS011;38105;52.968;5.974;2023-02-15T13:54:57;390.95;;;159.50;;
52106;SDS011;38105;52.968;5.974;2023-02-15T14:19:40;337.95;;;155.88;;
52106;SDS011;38105;52.968;5.974;2023-02-15T14:25:15;382.73;;;152.43;;
52106;SDS011;38105;52.968;5.974;2023-02-15T14:30:39;379.02;;;161.10;;
52106;SDS011;38105;52.968;5.974;2023-02-15T14:35:50;382.23;;;156.85;;
52106;SDS011;38105;52.968;5.974;2023-02-15T14:38:20;391.98;;;161.57;;
52106;SDS011;38105;52.968;5.974;2023-02-15T14:41:13;275.25;;;162.55;;
52106;SDS011;38105;52.968;5.974;2023-02-15T14:44:04;377.95;;;161.85;;
52106;SDS011;38105;52.968;5.974;2023-02-15T14:49:27;392.15;;;164.95;;
52106;SDS011;38105;52.968;5.974;2023-02-15T14:52:09;308.70;;;161.25;;
52106;SDS011;38105;52.968;5.974;2023-02-15T14:59:36;369.63;;;158.88;;
52106;SDS011;38105;52.968;5.974;2023-02-15T15:07:49;269.52;;;160.23;;
52106;SDS011;38105;52.968;5.974;2023-02-15T15:12:55;303.45;;;165.23;;
52106;SDS011;38105;52.968;5.974;2023-02-15T15:17:55;124.60;;;111.30;;
52106;SDS011;38105;52.968;5.974;2023-02-15T15:20:41;231.60;;;164.13;;
52106;SDS011;38105;52.968;5.974;2023-02-15T15:25:45;197.00;;;154.32;;
52106;SDS011;38105;52.968;5.974;2023-02-15T15:31:17;134.45;;;118.30;;
52106;SDS011;38105;52.968;5.974;2023-02-15T15:33:46;169.18;;;141.30;;
52106;SDS011;38105;52.968;5.974;2023-02-15T15:36:34;251.20;;;174.73;;
52106;SDS011;38105;52.968;5.974;2023-02-15T15:50:39;292.08;;;163.05;;
52106;SDS011;38105;52.968;5.974;2023-02-15T15:53:05;232.95;;;166.70;;
52106;SDS011;38105;52.968;5.974;2023-02-15T15:55:37;214.75;;;158.85;;
52106;SDS011;38105;52.968;5.974;2023-02-15T15:58:05;183.80;;;140.60;;
52106;SDS011;38105;52.968;5.974;2023-02-15T16:03:15;239.88;;;163.93;;
52106;SDS011;38105;52.968;5.974;2023-02-15T16:05:51;237.90;;;157.63;;
52106;SDS011;38105;52.968;5.974;2023-02-15T16:08:36;149.05;;;117.53;;
52106;SDS011;38105;52.968;5.974;2023-02-15T16:11:36;191.93;;;128.15;;
52106;SDS011;38105;52.968;5.974;2023-02-15T16:13:56;141.20;;;118.20;;
52106;SDS011;38105;52.968;5.974;2023-02-15T16:16:25;106.03;;;92.30;;
52106;SDS011;38105;52.968;5.974;2023-02-15T16:18:54;85.28;;;75.85;;
52106;SDS011;38105;52.968;5.974;2023-02-15T16:21:28;126.15;;;112.50;;
52106;SDS011;38105;52.968;5.974;2023-02-15T16:29:16;161.82;;;132.93;;
52106;SDS011;38105;52.968;5.974;2023-02-15T16:31:43;188.98;;;145.55;;
52106;SDS011;38105;52.968;5.974;2023-02-15T16:34:21;253.68;;;150.13;;
52106;SDS011;38105;52.968;5.974;2023-02-15T16:36:47;169.13;;;133.75;;
52106;SDS011;38105;52.968;5.974;2023-02-15T16:39:17;215.23;;;150.38;;
52106;SDS011;38105;52.968;5.974;2023-02-15T16:41:44;208.57;;;144.00;;
52106;SDS011;38105;52.968;5.974;2023-02-15T16:44:14;163.57;;;126.05;;
52106;SDS011;38105;52.968;5.974;2023-02-15T16:46:46;188.00;;;138.25;;
52106;SDS011;38105;52.968;5.974;2023-02-15T16:49:24;192.43;;;136.15;;
52106;SDS011;38105;52.968;5.974;2023-02-15T16:51:56;217.43;;;140.95;;
52106;SDS011;38105;52.968;5.974;2023-02-15T16:54:25;109.63;;;93.13;;
52106;SDS011;38105;52.968;5.974;2023-02-15T16:56:52;120.93;;;98.82;;
52106;SDS011;38105;52.968;5.974;2023-02-15T17:02:03;152.02;;;117.47;;
52106;SDS011;38105;52.968;5.974;2023-02-15T17:04:31;184.23;;;132.18;;
52106;SDS011;38105;52.968;5.974;2023-02-15T17:07:04;87.93;;;73.82;;
52106;SDS011;38105;52.968;5.974;2023-02-15T17:09:32;151.73;;;118.53;;
52106;SDS011;38105;52.968;5.974;2023-02-15T17:11:58;187.55;;;138.02;;
52106;SDS011;38105;52.968;5.974;2023-02-15T17:14:27;119.82;;;100.53;;
52106;SDS011;38105;52.968;5.974;2023-02-15T17:17:16;117.75;;;94.55;;
52106;SDS011;38105;52.968;5.974;2023-02-15T17:22:18;188.43;;;129.00;;
52106;SDS011;38105;52.968;5.974;2023-02-15T17:24:49;148.75;;;107.18;;
52106;SDS011;38105;52.968;5.974;2023-02-15T17:27:26;122.55;;;104.88;;
52106;SDS011;38105;52.968;5.974;2023-02-15T17:30:04;153.95;;;116.28;;
52106;SDS011;38105;52.968;5.974;2023-02-15T17:32:51;190.07;;;127.90;;
52106;SDS011;38105;52.968;5.974;2023-02-15T17:35:20;95.75;;;70.88;;
52106;SDS011;38105;52.968;5.974;2023-02-15T17:37:49;142.88;;;110.13;;
52106;SDS011;38105;52.968;5.974;2023-02-15T17:40:28;148.68;;;106.53;;
52106;SDS011;38105;52.968;5.974;2023-02-15T17:42:56;182.93;;;129.45;;
52106;SDS011;38105;52.968;5.974;2023-02-15T17:45:22;126.20;;;94.10;;
52106;SDS011;38105;52.968;5.974;2023-02-15T17:47:52;159.55;;;112.65;;
52106;SDS011;38105;52.968;5.974;2023-02-15T17:50:19;139.18;;;108.25;;
52106;SDS011;38105;52.968;5.974;2023-02-15T17:52:47;100.32;;;85.53;;
52106;SDS011;38105;52.968;5.974;2023-02-15T17:55:14;159.77;;;117.57;;
52106;SDS011;38105;52.968;5.974;2023-02-15T17:57:59;178.05;;;121.32;;
52106;SDS011;38105;52.968;5.974;2023-02-15T18:00:26;107.50;;;88.28;;